PWSweather.com
Personal Weather Stations
Station Observations
AF1HS
North Haven, CT 06473

North Haven, CT 06473

Lat: 41.3733, Lon: -72.8413

Elevation: 85.3

Station Type: Oregon Scientific WMR968

http://www.af1hs.com/wx/index.php

High Low Average
Temperature 49.2°F9.6°F 44.3°F6.8°F 46.4°F8.0°F
Dew Point 49.2°F9.6°F 44.3°F6.8°F 46.4°F8.0°F
Winds 8.0 mph NNW12.9 mph NNW Calm Calm 3.7 mph 6.0 mph
Wind Gusts 11.8 mph19.0 mph -- 6.4 mph10.3 mph
Humidity 100% 100% 100%
Pressure 29.88 in1011.90 in 29.82 in1009.80 in -
Precipitation 0.04 in1.00 in - -
Hour Temp Dew Point Humidity Winds Wind Gusts Pressure Precip Precip Rate Daily Precip Total
12:10 AM 47.7°F8.7°C 47.7°F8.7°C 100% Calm Calm -- 29.86 in1011.2 mb - 0.00 in0.0 mm 0.00 in0.0 mm
12:21 AM 47.8°F8.8°C 47.8°F8.8°C 100% Calm Calm 3.6 mph5.8 kmh 29.86 in1011.2 mb - 0.00 in0.0 mm 0.00 in0.0 mm
12:31 AM 47.8°F8.8°C 47.8°F8.8°C 100% 0.1 mph NW0.2 kmh NW 3.1 mph5.0 kmh 29.86 in1011.2 mb - 0.00 in0.0 mm 0.00 in0.0 mm
12:41 AM 47.8°F8.8°C 47.8°F8.8°C 100% Calm Calm 3.1 mph5.0 kmh 29.86 in1011.2 mb - 0.00 in0.0 mm 0.00 in0.0 mm
12:51 AM 47.8°F8.8°C 47.8°F8.8°C 100% Calm Calm 2.7 mph4.3 kmh 29.86 in1011.2 mb - 0.00 in0.0 mm 0.00 in0.0 mm
01:01 AM 47.8°F8.8°C 47.8°F8.8°C 100% Calm Calm 2.2 mph3.5 kmh 29.86 in1011.2 mb - 0.00 in0.0 mm 0.00 in0.0 mm
01:11 AM 47.8°F8.8°C 47.8°F8.8°C 100% Calm Calm 3.6 mph5.8 kmh 29.86 in1011.2 mb - 0.00 in0.0 mm 0.00 in0.0 mm
01:21 AM 47.8°F8.8°C 47.8°F8.8°C 100% Calm Calm 3.1 mph5.0 kmh 29.86 in1011.2 mb - 0.00 in0.0 mm 0.00 in0.0 mm
01:31 AM 47.8°F8.8°C 47.8°F8.8°C 100% Calm Calm -- 29.86 in1011.2 mb - 0.00 in0.0 mm 0.00 in0.0 mm
01:41 AM 47.8°F8.8°C 47.8°F8.8°C 100% Calm Calm -- 29.86 in1011.2 mb - 0.00 in0.0 mm 0.00 in0.0 mm
01:51 AM 47.7°F8.7°C 47.7°F8.7°C 100% 0.4 mph NW0.6 kmh NW 3.6 mph5.8 kmh 29.86 in1011.2 mb - 0.00 in0.0 mm 0.00 in0.0 mm
02:01 AM 47.7°F8.7°C 47.7°F8.7°C 100% 1.5 mph NW2.4 kmh NW 4.0 mph6.4 kmh 29.86 in1011.2 mb - 0.00 in0.0 mm 0.00 in0.0 mm
02:11 AM 47.7°F8.7°C 47.7°F8.7°C 100% 0.9 mph NW1.4 kmh NW 3.6 mph5.8 kmh 29.86 in1011.2 mb - 0.00 in0.0 mm 0.00 in0.0 mm
02:21 AM 47.7°F8.7°C 47.7°F8.7°C 100% 1.9 mph NW3.1 kmh NW 5.4 mph8.7 kmh 29.86 in1011.2 mb - 0.00 in0.0 mm 0.00 in0.0 mm
02:31 AM 47.7°F8.7°C 47.7°F8.7°C 100% 1.4 mph NNW2.3 kmh NNW 5.4 mph8.7 kmh 29.86 in1011.2 mb - 0.00 in0.0 mm 0.00 in0.0 mm
02:41 AM 47.7°F8.7°C 47.7°F8.7°C 100% 3.0 mph NNW4.8 kmh NNW 8.0 mph12.9 kmh 29.86 in1011.2 mb - 0.00 in0.0 mm 0.00 in0.0 mm
02:51 AM 47.7°F8.7°C 47.7°F8.7°C 100% 4.3 mph NNW6.9 kmh NNW 5.8 mph9.3 kmh 29.86 in1011.2 mb - 0.00 in0.0 mm 0.00 in0.0 mm
03:01 AM 47.5°F8.6°C 47.5°F8.6°C 100% 4.1 mph N6.6 kmh N 6.3 mph10.1 kmh 29.86 in1011.2 mb - 0.00 in0.0 mm 0.00 in0.0 mm
03:11 AM 47.4°F8.6°C 47.4°F8.6°C 100% 4.5 mph N7.2 kmh N 8.7 mph14.0 kmh 29.86 in1011.2 mb - 0.00 in0.0 mm 0.00 in0.0 mm
03:21 AM 47.3°F8.5°C 47.3°F8.5°C 100% 1.7 mph NW2.7 kmh NW 5.4 mph8.7 kmh 29.82 in1009.8 mb - 0.00 in0.0 mm 0.00 in0.0 mm
03:31 AM 47.3°F8.5°C 47.3°F8.5°C 100% 2.5 mph N4.0 kmh N 5.4 mph8.7 kmh 29.84 in1010.5 mb - 0.00 in0.0 mm 0.00 in0.0 mm
03:41 AM 47.1°F8.4°C 47.1°F8.4°C 100% 6.3 mph N10.1 kmh N 8.7 mph14.0 kmh 29.86 in1011.2 mb - 0.00 in0.0 mm 0.00 in0.0 mm
03:51 AM 46.6°F8.1°C 46.6°F8.1°C 100% 4.3 mph N6.9 kmh N 7.6 mph12.2 kmh 29.86 in1011.2 mb - 0.00 in0.0 mm 0.00 in0.0 mm
04:01 AM 46.2°F7.9°C 46.2°F7.9°C 100% 4.8 mph NNW7.7 kmh NNW 7.6 mph12.2 kmh 29.86 in1011.2 mb - 0.00 in0.0 mm 0.00 in0.0 mm
04:11 AM 46.0°F7.8°C 46.0°F7.8°C 100% 4.9 mph NNW7.9 kmh NNW 7.6 mph12.2 kmh 29.86 in1011.2 mb - 0.00 in0.0 mm 0.00 in0.0 mm
04:21 AM 45.7°F7.6°C 45.7°F7.6°C 100% 6.0 mph NW9.7 kmh NW 11.8 mph19.0 kmh 29.86 in1011.2 mb - 0.00 in0.0 mm 0.00 in0.0 mm
04:31 AM 45.5°F7.5°C 45.5°F7.5°C 100% 7.4 mph NNW11.9 kmh NNW 10.5 mph16.9 kmh 29.86 in1011.2 mb - 0.00 in0.0 mm 0.00 in0.0 mm
04:41 AM 45.2°F7.3°C 45.2°F7.3°C 100% 4.4 mph NNW7.1 kmh NNW 8.3 mph13.4 kmh 29.86 in1011.2 mb - 0.00 in0.0 mm 0.00 in0.0 mm
04:51 AM 45.1°F7.3°C 45.1°F7.3°C 100% 4.5 mph NNW7.2 kmh NNW 8.7 mph14.0 kmh 29.82 in1009.8 mb - 0.00 in0.0 mm 0.00 in0.0 mm
05:01 AM 45.0°F7.2°C 45.0°F7.2°C 100% 5.1 mph NNW8.2 kmh NNW 8.7 mph14.0 kmh 29.82 in1009.8 mb - 0.00 in0.0 mm 0.00 in0.0 mm
05:11 AM 44.8°F7.1°C 44.8°F7.1°C 100% 6.2 mph NW10.0 kmh NW 8.0 mph12.9 kmh 29.82 in1009.8 mb - 0.00 in0.0 mm 0.00 in0.0 mm
05:21 AM 44.8°F7.1°C 44.8°F7.1°C 100% 5.4 mph NNW8.7 kmh NNW 8.7 mph14.0 kmh 29.82 in1009.8 mb - 0.00 in0.0 mm 0.00 in0.0 mm
05:31 AM 44.7°F7.1°C 44.7°F7.1°C 100% 5.1 mph NW8.2 kmh NW 6.7 mph10.8 kmh 29.82 in1009.8 mb - 0.00 in0.0 mm 0.00 in0.0 mm
05:41 AM 44.6°F7.0°C 44.6°F7.0°C 100% 4.3 mph NNW6.9 kmh NNW 8.7 mph14.0 kmh 29.82 in1009.8 mb - 0.00 in0.0 mm 0.00 in0.0 mm
05:51 AM 44.6°F7.0°C 44.6°F7.0°C 100% 6.0 mph NNW9.7 kmh NNW 8.3 mph13.4 kmh 29.82 in1009.8 mb - 0.00 in0.0 mm 0.00 in0.0 mm
06:01 AM 44.4°F6.9°C 44.4°F6.9°C 100% 5.5 mph N8.9 kmh N 8.7 mph14.0 kmh 29.84 in1010.5 mb - 0.00 in0.0 mm 0.00 in0.0 mm
06:11 AM 44.4°F6.9°C 44.4°F6.9°C 100% 5.0 mph N8.0 kmh N 10.5 mph16.9 kmh 29.86 in1011.2 mb - 0.00 in0.0 mm 0.00 in0.0 mm
06:21 AM 44.4°F6.9°C 44.4°F6.9°C 100% 4.9 mph NNW7.9 kmh NNW 11.4 mph18.3 kmh 29.86 in1011.2 mb - 0.00 in0.0 mm 0.00 in0.0 mm
06:31 AM 44.4°F6.9°C 44.4°F6.9°C 100% 4.9 mph NNW7.9 kmh NNW 8.0 mph12.9 kmh 29.86 in1011.2 mb - 0.00 in0.0 mm 0.00 in0.0 mm
06:41 AM 44.3°F6.8°C 44.3°F6.8°C 100% 7.4 mph N11.9 kmh N 8.3 mph13.4 kmh 29.86 in1011.2 mb - 0.00 in0.0 mm 0.00 in0.0 mm
06:51 AM 44.4°F6.9°C 44.4°F6.9°C 100% 3.6 mph N5.8 kmh N 7.2 mph11.6 kmh 29.82 in1009.8 mb - 0.00 in0.0 mm 0.00 in0.0 mm
07:01 AM 44.6°F7.0°C 44.6°F7.0°C 100% 4.1 mph N6.6 kmh N 8.3 mph13.4 kmh 29.82 in1009.8 mb - 0.00 in0.0 mm 0.00 in0.0 mm
07:11 AM 44.8°F7.1°C 44.8°F7.1°C 100% 2.9 mph NW4.7 kmh NW 6.7 mph10.8 kmh 29.82 in1009.8 mb - 0.00 in0.0 mm 0.00 in0.0 mm
07:30 AM 45.0°F7.2°C 45.0°F7.2°C 100% 5.1 mph N8.2 kmh N 4.9 mph7.9 kmh 29.86 in1011.2 mb - 0.00 in0.0 mm 0.00 in0.0 mm
07:40 AM 45.2°F7.3°C 45.2°F7.3°C 100% 4.8 mph N7.7 kmh N 6.3 mph10.1 kmh 29.86 in1011.2 mb - 0.00 in0.0 mm 0.00 in0.0 mm
07:51 AM 45.3°F7.4°C 45.3°F7.4°C 100% 4.6 mph NNW7.4 kmh NNW 7.2 mph11.6 kmh 29.86 in1011.2 mb - 0.00 in0.0 mm 0.00 in0.0 mm
08:00 AM 45.3°F7.4°C 45.3°F7.4°C 100% 5.5 mph N8.9 kmh N 8.3 mph13.4 kmh 29.86 in1011.2 mb - 0.00 in0.0 mm 0.00 in0.0 mm
08:11 AM 45.4°F7.4°C 45.4°F7.4°C 100% 3.4 mph NNW5.5 kmh NNW 4.9 mph7.9 kmh 29.86 in1011.2 mb - 0.00 in0.0 mm 0.00 in0.0 mm
08:21 AM 45.5°F7.5°C 45.5°F7.5°C 100% 3.6 mph NW5.8 kmh NW 4.0 mph6.4 kmh 29.86 in1011.2 mb - 0.00 in0.0 mm 0.00 in0.0 mm
08:31 AM 45.5°F7.5°C 45.5°F7.5°C 100% 4.2 mph N6.8 kmh N 7.6 mph12.2 kmh 29.86 in1011.2 mb - 0.00 in0.0 mm 0.00 in0.0 mm
08:40 AM 45.4°F7.4°C 45.4°F7.4°C 100% 5.4 mph N8.7 kmh N 4.9 mph7.9 kmh 29.86 in1011.2 mb - 0.00 in0.0 mm 0.00 in0.0 mm
08:51 AM 45.5°F7.5°C 45.5°F7.5°C 100% 5.5 mph NNW8.9 kmh NNW 8.0 mph12.9 kmh 29.86 in1011.2 mb - 0.00 in0.0 mm 0.00 in0.0 mm
09:01 AM 45.5°F7.5°C 45.5°F7.5°C 100% 5.8 mph NW9.3 kmh NW 7.6 mph12.2 kmh 29.86 in1011.2 mb - 0.00 in0.0 mm 0.00 in0.0 mm
09:11 AM 45.5°F7.5°C 45.5°F7.5°C 100% 5.4 mph NNW8.7 kmh NNW 8.7 mph14.0 kmh 29.86 in1011.2 mb - 0.00 in0.0 mm 0.00 in0.0 mm
09:21 AM 45.7°F7.6°C 45.7°F7.6°C 100% 5.5 mph NNW8.9 kmh NNW 8.0 mph12.9 kmh 29.86 in1011.2 mb - 0.00 in0.0 mm 0.00 in0.0 mm
09:31 AM 45.9°F7.7°C 45.9°F7.7°C 100% 4.0 mph NE6.4 kmh NE 5.8 mph9.3 kmh 29.86 in1011.2 mb - 0.00 in0.0 mm 0.00 in0.0 mm
09:51 AM 46.1°F7.8°C 46.1°F7.8°C 100% 6.1 mph NW9.8 kmh NW 8.3 mph13.4 kmh 29.86 in1011.2 mb - 0.00 in0.0 mm 0.00 in0.0 mm
10:01 AM 46.4°F8.0°C 46.4°F8.0°C 100% 6.3 mph N10.1 kmh N 8.0 mph12.9 kmh 29.86 in1011.2 mb - 0.00 in0.0 mm 0.00 in0.0 mm
10:11 AM 46.6°F8.1°C 46.6°F8.1°C 100% 4.6 mph NNE7.4 kmh NNE 5.4 mph8.7 kmh 29.86 in1011.2 mb - 0.00 in0.0 mm 0.00 in0.0 mm
10:21 AM 46.7°F8.2°C 46.7°F8.2°C 100% 5.1 mph N8.2 kmh N 8.7 mph14.0 kmh 29.86 in1011.2 mb - 0.00 in0.0 mm 0.00 in0.0 mm
10:31 AM 46.8°F8.2°C 46.8°F8.2°C 100% 8.0 mph NNW12.9 kmh NNW 10.1 mph16.3 kmh 29.86 in1011.2 mb - 0.00 in0.0 mm 0.00 in0.0 mm
10:41 AM 46.8°F8.2°C 46.8°F8.2°C 100% 4.4 mph N7.1 kmh N 7.6 mph12.2 kmh 29.88 in1011.9 mb - 0.00 in0.0 mm 0.00 in0.0 mm
10:51 AM 46.8°F8.2°C 46.8°F8.2°C 100% 3.2 mph N5.1 kmh N 4.0 mph6.4 kmh 29.88 in1011.9 mb - 0.00 in0.0 mm 0.00 in0.0 mm
11:01 AM 46.7°F8.2°C 46.7°F8.2°C 100% 3.7 mph NE6.0 kmh NE 5.8 mph9.3 kmh 29.87 in1011.5 mb - 0.00 in0.0 mm 0.00 in0.0 mm
11:11 AM 47.1°F8.4°C 47.1°F8.4°C 100% 1.4 mph N2.3 kmh N 3.6 mph5.8 kmh 29.86 in1011.2 mb - 0.00 in0.0 mm 0.00 in0.0 mm
11:31 AM 47.7°F8.7°C 47.7°F8.7°C 100% 4.6 mph NW7.4 kmh NW 5.4 mph8.7 kmh 29.88 in1011.9 mb - 0.00 in0.0 mm 0.00 in0.0 mm
11:51 AM 47.7°F8.7°C 47.7°F8.7°C 100% 4.8 mph 7.7 kmh 8.7 mph14.0 kmh 29.86 in1011.2 mb - 0.00 in0.0 mm 0.00 in0.0 mm
12:01 PM 47.8°F8.8°C 47.8°F8.8°C 100% 3.9 mph NNW6.3 kmh NNW 7.6 mph12.2 kmh 29.87 in1011.5 mb - 0.00 in0.0 mm 0.00 in0.0 mm
12:11 PM 47.5°F8.6°C 47.5°F8.6°C 100% 0.6 mph NW1.0 kmh NW 4.0 mph6.4 kmh 29.88 in1011.9 mb - 0.04 in1.0 mm 0.04 in1.0 mm
12:31 PM 47.2°F8.4°C 47.2°F8.4°C 100% 4.3 mph NNW6.9 kmh NNW 7.6 mph12.2 kmh 29.88 in1011.9 mb - 0.00 in0.0 mm 0.04 in1.0 mm
12:41 PM 47.9°F8.8°C 47.9°F8.8°C 100% 2.1 mph NW3.4 kmh NW 4.0 mph6.4 kmh 29.88 in1011.9 mb - 0.00 in0.0 mm 0.04 in1.0 mm
12:51 PM 48.4°F9.1°C 48.4°F9.1°C 100% 3.6 mph NNW5.8 kmh NNW 6.3 mph10.1 kmh 29.86 in1011.2 mb - 0.00 in0.0 mm 0.04 in1.0 mm
01:01 PM 48.8°F9.3°C 48.8°F9.3°C 100% 3.3 mph NNW5.3 kmh NNW 5.8 mph9.3 kmh 29.86 in1011.2 mb - 0.00 in0.0 mm 0.04 in1.0 mm
01:21 PM 49.2°F9.6°C 49.2°F9.6°C 100% 3.6 mph NW5.8 kmh NW 4.9 mph7.9 kmh 29.86 in1011.2 mb - 0.00 in0.0 mm 0.04 in1.0 mm